sensor_id;sensor_type;location;lat;lon;timestamp;temperature;humidity
4103;DHT22;2065;49.790;9.620;2023-05-07T00:01:43;20.10;56.60
4103;DHT22;2065;49.790;9.620;2023-05-07T00:04:10;20.10;56.60
4103;DHT22;2065;49.790;9.620;2023-05-07T00:06:38;20.10;56.80
4103;DHT22;2065;49.790;9.620;2023-05-07T00:09:05;20.10;56.60
4103;DHT22;2065;49.790;9.620;2023-05-07T00:11:33;20.20;56.20
4103;DHT22;2065;49.790;9.620;2023-05-07T00:14:00;20.10;55.70
4103;DHT22;2065;49.790;9.620;2023-05-07T00:16:27;20.00;56.20
4103;DHT22;2065;49.790;9.620;2023-05-07T00:18:56;19.90;56.50
4103;DHT22;2065;49.790;9.620;2023-05-07T00:21:23;19.80;56.70
4103;DHT22;2065;49.790;9.620;2023-05-07T00:23:52;19.90;56.40
4103;DHT22;2065;49.790;9.620;2023-05-07T00:26:19;19.90;56.70
4103;DHT22;2065;49.790;9.620;2023-05-07T00:28:47;20.00;56.80
4103;DHT22;2065;49.790;9.620;2023-05-07T00:31:14;20.00;56.30
4103;DHT22;2065;49.790;9.620;2023-05-07T00:33:41;20.00;56.30
4103;DHT22;2065;49.790;9.620;2023-05-07T00:36:10;20.10;56.20
4103;DHT22;2065;49.790;9.620;2023-05-07T00:38:37;20.00;56.40
4103;DHT22;2065;49.790;9.620;2023-05-07T00:41:04;20.00;56.20
4103;DHT22;2065;49.790;9.620;2023-05-07T00:43:31;20.00;56.30
4103;DHT22;2065;49.790;9.620;2023-05-07T00:45:59;19.90;56.20
4103;DHT22;2065;49.790;9.620;2023-05-07T00:48:26;19.90;56.10
4103;DHT22;2065;49.790;9.620;2023-05-07T00:50:54;19.90;56.30
4103;DHT22;2065;49.790;9.620;2023-05-07T00:53:22;19.90;56.20
4103;DHT22;2065;49.790;9.620;2023-05-07T00:55:50;19.90;55.90
4103;DHT22;2065;49.790;9.620;2023-05-07T00:58:17;19.90;55.80
4103;DHT22;2065;49.790;9.620;2023-05-07T01:00:44;19.90;55.60
4103;DHT22;2065;49.790;9.620;2023-05-07T01:03:11;19.80;55.30
4103;DHT22;2065;49.790;9.620;2023-05-07T01:05:38;19.80;55.30
4103;DHT22;2065;49.790;9.620;2023-05-07T01:08:06;19.60;55.30
4103;DHT22;2065;49.790;9.620;2023-05-07T01:10:35;19.20;56.50
4103;DHT22;2065;49.790;9.620;2023-05-07T01:13:03;19.20;56.40
4103;DHT22;2065;49.790;9.620;2023-05-07T01:15:30;19.30;56.40
4103;DHT22;2065;49.790;9.620;2023-05-07T01:17:58;19.40;56.00
4103;DHT22;2065;49.790;9.620;2023-05-07T01:20:31;19.50;55.90
4103;DHT22;2065;49.790;9.620;2023-05-07T01:23:00;19.60;55.60
4103;DHT22;2065;49.790;9.620;2023-05-07T01:25:28;19.50;55.70
4103;DHT22;2065;49.790;9.620;2023-05-07T01:27:59;19.50;55.50
4103;DHT22;2065;49.790;9.620;2023-05-07T01:30:30;19.50;54.80
4103;DHT22;2065;49.790;9.620;2023-05-07T01:33:01;19.40;55.10
4103;DHT22;2065;49.790;9.620;2023-05-07T01:35:34;19.30;55.40
4103;DHT22;2065;49.790;9.620;2023-05-07T01:38:04;19.30;55.80
4103;DHT22;2065;49.790;9.620;2023-05-07T01:40:32;19.30;55.80
4103;DHT22;2065;49.790;9.620;2023-05-07T01:43:00;19.30;55.70
4103;DHT22;2065;49.790;9.620;2023-05-07T01:45:27;19.30;55.60
4103;DHT22;2065;49.790;9.620;2023-05-07T01:47:55;19.30;55.50
4103;DHT22;2065;49.790;9.620;2023-05-07T01:50:23;19.30;55.70
4103;DHT22;2065;49.790;9.620;2023-05-07T01:52:50;19.30;55.70
4103;DHT22;2065;49.790;9.620;2023-05-07T01:55:19;19.20;56.20
4103;DHT22;2065;49.790;9.620;2023-05-07T01:57:47;19.10;56.50
4103;DHT22;2065;49.790;9.620;2023-05-07T02:00:16;18.80;57.00
4103;DHT22;2065;49.790;9.620;2023-05-07T02:02:44;18.90;57.00
4103;DHT22;2065;49.790;9.620;2023-05-07T02:05:23;19.00;56.90
4103;DHT22;2065;49.790;9.620;2023-05-07T02:07:58;19.10;57.00
4103;DHT22;2065;49.790;9.620;2023-05-07T02:10:28;19.10;56.80
4103;DHT22;2065;49.790;9.620;2023-05-07T02:12:55;19.20;56.80
4103;DHT22;2065;49.790;9.620;2023-05-07T02:15:22;19.20;56.60
4103;DHT22;2065;49.790;9.620;2023-05-07T02:18:00;19.20;56.60
4103;DHT22;2065;49.790;9.620;2023-05-07T02:20:27;19.20;56.70
4103;DHT22;2065;49.790;9.620;2023-05-07T02:22:55;19.20;56.70
4103;DHT22;2065;49.790;9.620;2023-05-07T02:25:22;19.20;56.70
4103;DHT22;2065;49.790;9.620;2023-05-07T02:27:50;19.10;57.00
4103;DHT22;2065;49.790;9.620;2023-05-07T02:30:19;19.10;57.00
4103;DHT22;2065;49.790;9.620;2023-05-07T02:32:50;19.10;57.00
4103;DHT22;2065;49.790;9.620;2023-05-07T02:35:17;19.10;56.90
4103;DHT22;2065;49.790;9.620;2023-05-07T02:37:44;18.90;56.80
4103;DHT22;2065;49.790;9.620;2023-05-07T02:40:12;19.00;56.60
4103;DHT22;2065;49.790;9.620;2023-05-07T02:42:39;18.80;56.50
4103;DHT22;2065;49.790;9.620;2023-05-07T02:45:09;18.70;55.90
4103;DHT22;2065;49.790;9.620;2023-05-07T02:47:37;18.70;56.90
4103;DHT22;2065;49.790;9.620;2023-05-07T02:50:06;18.80;56.90
4103;DHT22;2065;49.790;9.620;2023-05-07T02:52:33;19.00;56.80
4103;DHT22;2065;49.790;9.620;2023-05-07T02:55:00;18.80;56.20
4103;DHT22;2065;49.790;9.620;2023-05-07T02:57:28;18.50;57.60
4103;DHT22;2065;49.790;9.620;2023-05-07T02:59:57;18.40;59.00
4103;DHT22;2065;49.790;9.620;2023-05-07T03:02:26;18.60;59.30
4103;DHT22;2065;49.790;9.620;2023-05-07T03:04:53;18.70;59.00
4103;DHT22;2065;49.790;9.620;2023-05-07T03:07:20;18.80;58.60
4103;DHT22;2065;49.790;9.620;2023-05-07T03:09:47;18.90;58.60
4103;DHT22;2065;49.790;9.620;2023-05-07T03:12:14;19.00;58.40
4103;DHT22;2065;49.790;9.620;2023-05-07T03:14:41;19.00;58.20
4103;DHT22;2065;49.790;9.620;2023-05-07T03:17:08;19.10;58.10
4103;DHT22;2065;49.790;9.620;2023-05-07T03:19:36;19.00;58.30
4103;DHT22;2065;49.790;9.620;2023-05-07T03:22:03;19.00;58.10
4103;DHT22;2065;49.790;9.620;2023-05-07T03:24:30;19.00;57.80
4103;DHT22;2065;49.790;9.620;2023-05-07T03:26:57;19.00;57.40
4103;DHT22;2065;49.790;9.620;2023-05-07T03:29:25;19.00;57.40
4103;DHT22;2065;49.790;9.620;2023-05-07T03:31:52;18.90;57.30
4103;DHT22;2065;49.790;9.620;2023-05-07T03:34:19;19.00;56.90
4103;DHT22;2065;49.790;9.620;2023-05-07T03:36:49;18.90;56.80
4103;DHT22;2065;49.790;9.620;2023-05-07T03:39:17;18.90;56.60
4103;DHT22;2065;49.790;9.620;2023-05-07T03:41:44;18.80;56.30
4103;DHT22;2065;49.790;9.620;2023-05-07T03:44:11;18.70;56.40
4103;DHT22;2065;49.790;9.620;2023-05-07T03:46:38;18.40;57.10
4103;DHT22;2065;49.790;9.620;2023-05-07T03:49:06;18.20;57.60
4103;DHT22;2065;49.790;9.620;2023-05-07T03:51:33;18.20;57.60
4103;DHT22;2065;49.790;9.620;2023-05-07T03:54:04;18.20;57.90
4103;DHT22;2065;49.790;9.620;2023-05-07T03:56:33;18.10;57.10
4103;DHT22;2065;49.790;9.620;2023-05-07T03:59:00;18.10;57.20
4103;DHT22;2065;49.790;9.620;2023-05-07T04:01:27;18.20;57.80
4103;DHT22;2065;49.790;9.620;2023-05-07T04:03:54;18.30;57.50
4103;DHT22;2065;49.790;9.620;2023-05-07T04:06:21;18.40;57.40
4103;DHT22;2065;49.790;9.620;2023-05-07T04:08:49;18.40;57.40
4103;DHT22;2065;49.790;9.620;2023-05-07T04:11:17;18.30;57.70
4103;DHT22;2065;49.790;9.620;2023-05-07T04:13:44;18.40;58.10
4103;DHT22;2065;49.790;9.620;2023-05-07T04:16:11;18.50;58.20
4103;DHT22;2065;49.790;9.620;2023-05-07T04:18:38;18.50;57.50
4103;DHT22;2065;49.790;9.620;2023-05-07T04:21:05;18.60;57.60
4103;DHT22;2065;49.790;9.620;2023-05-07T04:23:35;18.30;57.30
4103;DHT22;2065;49.790;9.620;2023-05-07T04:26:07;18.20;57.90
4103;DHT22;2065;49.790;9.620;2023-05-07T04:28:42;18.00;58.00
4103;DHT22;2065;49.790;9.620;2023-05-07T04:31:10;18.00;58.50
4103;DHT22;2065;49.790;9.620;2023-05-07T04:33:37;18.10;58.10
4103;DHT22;2065;49.790;9.620;2023-05-07T04:36:07;18.30;57.80
4103;DHT22;2065;49.790;9.620;2023-05-07T04:38:41;18.50;57.70
4103;DHT22;2065;49.790;9.620;2023-05-07T04:41:09;18.60;57.70
4103;DHT22;2065;49.790;9.620;2023-05-07T04:43:39;18.70;57.70
4103;DHT22;2065;49.790;9.620;2023-05-07T04:46:08;18.70;57.50
4103;DHT22;2065;49.790;9.620;2023-05-07T04:48:36;18.80;57.60
4103;DHT22;2065;49.790;9.620;2023-05-07T04:51:05;18.90;57.50
4103;DHT22;2065;49.790;9.620;2023-05-07T04:53:32;18.90;57.50
4103;DHT22;2065;49.790;9.620;2023-05-07T04:55:59;19.00;57.80
4103;DHT22;2065;49.790;9.620;2023-05-07T04:58:32;19.00;57.90
4103;DHT22;2065;49.790;9.620;2023-05-07T05:01:00;19.00;58.20
4103;DHT22;2065;49.790;9.620;2023-05-07T05:03:28;18.90;58.50
4103;DHT22;2065;49.790;9.620;2023-05-07T05:05:57;19.00;58.30
4103;DHT22;2065;49.790;9.620;2023-05-07T05:08:26;19.00;58.20
4103;DHT22;2065;49.790;9.620;2023-05-07T05:10:53;18.90;58.10
4103;DHT22;2065;49.790;9.620;2023-05-07T05:13:21;18.90;58.60
4103;DHT22;2065;49.790;9.620;2023-05-07T05:15:48;18.70;58.10
4103;DHT22;2065;49.790;9.620;2023-05-07T05:18:15;18.90;58.40
4103;DHT22;2065;49.790;9.620;2023-05-07T05:20:43;19.00;58.60
4103;DHT22;2065;49.790;9.620;2023-05-07T05:23:11;19.00;58.60
4103;DHT22;2065;49.790;9.620;2023-05-07T05:25:39;19.10;58.60
4103;DHT22;2065;49.790;9.620;2023-05-07T05:28:07;19.10;58.80
4103;DHT22;2065;49.790;9.620;2023-05-07T05:30:34;19.00;58.50
4103;DHT22;2065;49.790;9.620;2023-05-07T05:33:01;19.00;58.70
4103;DHT22;2065;49.790;9.620;2023-05-07T05:35:29;18.90;58.30
4103;DHT22;2065;49.790;9.620;2023-05-07T05:37:59;18.90;58.70
4103;DHT22;2065;49.790;9.620;2023-05-07T05:40:26;18.90;58.90
4103;DHT22;2065;49.790;9.620;2023-05-07T05:42:54;18.90;58.80
4103;DHT22;2065;49.790;9.620;2023-05-07T05:45:22;19.10;58.60
4103;DHT22;2065;49.790;9.620;2023-05-07T05:47:50;19.30;58.30
4103;DHT22;2065;49.790;9.620;2023-05-07T05:50:17;19.40;57.90
4103;DHT22;2065;49.790;9.620;2023-05-07T05:52:44;19.50;57.60
4103;DHT22;2065;49.790;9.620;2023-05-07T05:55:13;19.50;57.00
4103;DHT22;2065;49.790;9.620;2023-05-07T05:57:40;19.50;57.20
4103;DHT22;2065;49.790;9.620;2023-05-07T06:00:09;19.50;57.10
4103;DHT22;2065;49.790;9.620;2023-05-07T06:02:44;19.60;57.00
4103;DHT22;2065;49.790;9.620;2023-05-07T06:05:15;19.70;57.20
4103;DHT22;2065;49.790;9.620;2023-05-07T06:07:42;19.80;57.40
4103;DHT22;2065;49.790;9.620;2023-05-07T06:10:09;20.00;57.10
4103;DHT22;2065;49.790;9.620;2023-05-07T06:12:38;20.10;56.80
4103;DHT22;2065;49.790;9.620;2023-05-07T06:15:06;20.10;56.30
4103;DHT22;2065;49.790;9.620;2023-05-07T06:17:34;20.20;55.80
4103;DHT22;2065;49.790;9.620;2023-05-07T06:20:01;20.10;55.60
4103;DHT22;2065;49.790;9.620;2023-05-07T06:22:29;20.20;56.20
4103;DHT22;2065;49.790;9.620;2023-05-07T06:24:56;20.10;56.70
4103;DHT22;2065;49.790;9.620;2023-05-07T06:27:23;20.10;56.00
4103;DHT22;2065;49.790;9.620;2023-05-07T06:29:53;20.00;56.10
4103;DHT22;2065;49.790;9.620;2023-05-07T06:32:21;20.00;55.70
4103;DHT22;2065;49.790;9.620;2023-05-07T06:34:49;19.90;56.00
4103;DHT22;2065;49.790;9.620;2023-05-07T06:37:16;19.90;56.10
4103;DHT22;2065;49.790;9.620;2023-05-07T06:39:52;20.00;56.10
4103;DHT22;2065;49.790;9.620;2023-05-07T06:42:19;20.10;56.50
4103;DHT22;2065;49.790;9.620;2023-05-07T06:44:48;20.00;55.80
4103;DHT22;2065;49.790;9.620;2023-05-07T06:47:18;19.90;55.60
4103;DHT22;2065;49.790;9.620;2023-05-07T06:49:50;19.80;55.90
4103;DHT22;2065;49.790;9.620;2023-05-07T06:52:19;19.80;56.00
4103;DHT22;2065;49.790;9.620;2023-05-07T06:54:48;19.90;56.10
4103;DHT22;2065;49.790;9.620;2023-05-07T06:57:17;19.90;55.90
4103;DHT22;2065;49.790;9.620;2023-05-07T06:59:45;19.70;56.50
4103;DHT22;2065;49.790;9.620;2023-05-07T07:02:12;19.70;56.40
4103;DHT22;2065;49.790;9.620;2023-05-07T07:04:40;19.90;56.10
4103;DHT22;2065;49.790;9.620;2023-05-07T07:07:10;20.00;55.90
4103;DHT22;2065;49.790;9.620;2023-05-07T07:09:38;20.10;55.50
4103;DHT22;2065;49.790;9.620;2023-05-07T07:12:07;20.10;55.30
4103;DHT22;2065;49.790;9.620;2023-05-07T07:14:36;20.10;55.20
4103;DHT22;2065;49.790;9.620;2023-05-07T07:17:03;20.40;55.60
4103;DHT22;2065;49.790;9.620;2023-05-07T07:19:31;20.40;55.00
4103;DHT22;2065;49.790;9.620;2023-05-07T07:22:01;20.60;54.70
4103;DHT22;2065;49.790;9.620;2023-05-07T07:24:28;20.70;53.90
4103;DHT22;2065;49.790;9.620;2023-05-07T07:26:58;20.80;54.20
4103;DHT22;2065;49.790;9.620;2023-05-07T07:29:26;20.90;54.60
4103;DHT22;2065;49.790;9.620;2023-05-07T07:31:54;21.00;53.70
4103;DHT22;2065;49.790;9.620;2023-05-07T07:34:21;21.00;53.30
4103;DHT22;2065;49.790;9.620;2023-05-07T07:36:49;20.80;53.00
4103;DHT22;2065;49.790;9.620;2023-05-07T07:39:19;21.00;53.60
4103;DHT22;2065;49.790;9.620;2023-05-07T07:41:49;20.90;53.30
4103;DHT22;2065;49.790;9.620;2023-05-07T07:44:18;20.70;53.70
4103;DHT22;2065;49.790;9.620;2023-05-07T07:46:49;20.60;54.60
4103;DHT22;2065;49.790;9.620;2023-05-07T07:49:17;20.70;54.70
4103;DHT22;2065;49.790;9.620;2023-05-07T07:51:44;20.80;53.80
4103;DHT22;2065;49.790;9.620;2023-05-07T07:54:13;20.90;54.10
4103;DHT22;2065;49.790;9.620;2023-05-07T07:56:42;20.80;53.40
4103;DHT22;2065;49.790;9.620;2023-05-07T07:59:10;20.80;53.50
4103;DHT22;2065;49.790;9.620;2023-05-07T08:01:40;20.90;53.80
4103;DHT22;2065;49.790;9.620;2023-05-07T08:04:07;21.10;53.80
4103;DHT22;2065;49.790;9.620;2023-05-07T08:06:37;21.20;52.10
4103;DHT22;2065;49.790;9.620;2023-05-07T08:09:05;21.20;52.80
4103;DHT22;2065;49.790;9.620;2023-05-07T08:11:32;21.50;52.80
4103;DHT22;2065;49.790;9.620;2023-05-07T08:14:01;21.60;52.10
4103;DHT22;2065;49.790;9.620;2023-05-07T08:16:29;21.60;52.20
4103;DHT22;2065;49.790;9.620;2023-05-07T08:18:56;21.70;52.10
4103;DHT22;2065;49.790;9.620;2023-05-07T08:21:23;21.80;52.30
4103;DHT22;2065;49.790;9.620;2023-05-07T08:23:50;21.90;52.10
4103;DHT22;2065;49.790;9.620;2023-05-07T08:26:17;22.00;52.10
4103;DHT22;2065;49.790;9.620;2023-05-07T08:28:44;22.20;51.70
4103;DHT22;2065;49.790;9.620;2023-05-07T08:31:13;22.00;51.10
4103;DHT22;2065;49.790;9.620;2023-05-07T08:33:43;21.80;52.10
4103;DHT22;2065;49.790;9.620;2023-05-07T08:36:10;21.90;52.20
4103;DHT22;2065;49.790;9.620;2023-05-07T08:38:37;21.80;52.10
4103;DHT22;2065;49.790;9.620;2023-05-07T08:41:06;21.70;52.30
4103;DHT22;2065;49.790;9.620;2023-05-07T08:43:38;21.70;52.20
4103;DHT22;2065;49.790;9.620;2023-05-07T08:46:09;21.60;52.50
4103;DHT22;2065;49.790;9.620;2023-05-07T08:48:41;21.70;52.50
4103;DHT22;2065;49.790;9.620;2023-05-07T08:51:16;22.00;51.80
4103;DHT22;2065;49.790;9.620;2023-05-07T08:53:44;22.00;52.00
4103;DHT22;2065;49.790;9.620;2023-05-07T08:56:16;22.10;51.20
4103;DHT22;2065;49.790;9.620;2023-05-07T08:58:44;22.10;50.20
4103;DHT22;2065;49.790;9.620;2023-05-07T09:01:14;22.30;50.80
4103;DHT22;2065;49.790;9.620;2023-05-07T09:03:46;22.50;50.60
4103;DHT22;2065;49.790;9.620;2023-05-07T09:06:15;22.70;50.00
4103;DHT22;2065;49.790;9.620;2023-05-07T09:08:49;22.30;51.40
4103;DHT22;2065;49.790;9.620;2023-05-07T09:11:19;22.40;51.30
4103;DHT22;2065;49.790;9.620;2023-05-07T09:13:47;22.60;50.50
4103;DHT22;2065;49.790;9.620;2023-05-07T09:16:15;22.70;50.20
4103;DHT22;2065;49.790;9.620;2023-05-07T09:18:46;23.00;50.80
4103;DHT22;2065;49.790;9.620;2023-05-07T09:21:15;22.90;49.60
4103;DHT22;2065;49.790;9.620;2023-05-07T09:23:43;22.70;49.70
4103;DHT22;2065;49.790;9.620;2023-05-07T09:26:10;22.90;49.60
4103;DHT22;2065;49.790;9.620;2023-05-07T09:28:40;23.20;49.70
4103;DHT22;2065;49.790;9.620;2023-05-07T09:31:10;23.30;49.20
4103;DHT22;2065;49.790;9.620;2023-05-07T09:33:38;23.50;49.50
4103;DHT22;2065;49.790;9.620;2023-05-07T09:36:09;23.60;48.90
4103;DHT22;2065;49.790;9.620;2023-05-07T09:38:38;23.50;48.70
4103;DHT22;2065;49.790;9.620;2023-05-07T09:41:07;23.70;49.30
4103;DHT22;2065;49.790;9.620;2023-05-07T09:43:41;24.00;49.50
4103;DHT22;2065;49.790;9.620;2023-05-07T09:46:12;24.20;48.10
4103;DHT22;2065;49.790;9.620;2023-05-07T09:48:44;24.20;48.10
4103;DHT22;2065;49.790;9.620;2023-05-07T09:51:17;24.20;47.30
4103;DHT22;2065;49.790;9.620;2023-05-07T09:53:45;24.00;47.70
4103;DHT22;2065;49.790;9.620;2023-05-07T09:56:14;24.00;47.80
4103;DHT22;2065;49.790;9.620;2023-05-07T09:58:43;23.80;49.10
4103;DHT22;2065;49.790;9.620;2023-05-07T10:01:12;24.30;49.10
4103;DHT22;2065;49.790;9.620;2023-05-07T10:03:41;25.10;47.40
4103;DHT22;2065;49.790;9.620;2023-05-07T10:06:10;25.30;46.80
4103;DHT22;2065;49.790;9.620;2023-05-07T10:08:39;25.30;45.70
4103;DHT22;2065;49.790;9.620;2023-05-07T10:11:09;25.40;46.50
4103;DHT22;2065;49.790;9.620;2023-05-07T10:13:36;25.60;45.30
4103;DHT22;2065;49.790;9.620;2023-05-07T10:16:06;25.20;46.00
4103;DHT22;2065;49.790;9.620;2023-05-07T10:18:40;25.10;46.10
4103;DHT22;2065;49.790;9.620;2023-05-07T10:21:16;25.10;45.80
4103;DHT22;2065;49.790;9.620;2023-05-07T10:23:49;25.00;46.50
4103;DHT22;2065;49.790;9.620;2023-05-07T10:26:20;25.10;46.10
4103;DHT22;2065;49.790;9.620;2023-05-07T10:28:52;25.40;45.80
4103;DHT22;2065;49.790;9.620;2023-05-07T10:31:31;25.50;45.40
4103;DHT22;2065;49.790;9.620;2023-05-07T10:34:08;25.70;45.90
4103;DHT22;2065;49.790;9.620;2023-05-07T10:36:36;25.80;45.00
4103;DHT22;2065;49.790;9.620;2023-05-07T10:39:09;26.10;44.70
4103;DHT22;2065;49.790;9.620;2023-05-07T10:41:39;26.40;42.90
4103;DHT22;2065;49.790;9.620;2023-05-07T10:44:07;26.30;43.30
4103;DHT22;2065;49.790;9.620;2023-05-07T10:46:36;26.20;43.30
4103;DHT22;2065;49.790;9.620;2023-05-07T10:49:11;26.50;45.00
4103;DHT22;2065;49.790;9.620;2023-05-07T10:51:44;26.50;43.80
4103;DHT22;2065;49.790;9.620;2023-05-07T10:54:28;26.40;44.60
4103;DHT22;2065;49.790;9.620;2023-05-07T10:57:32;26.70;44.30
4103;DHT22;2065;49.790;9.620;2023-05-07T11:00:41;26.90;44.90
4103;DHT22;2065;49.790;9.620;2023-05-07T11:03:13;27.30;42.90
4103;DHT22;2065;49.790;9.620;2023-05-07T11:05:46;27.30;42.70
4103;DHT22;2065;49.790;9.620;2023-05-07T11:08:24;27.20;42.70
4103;DHT22;2065;49.790;9.620;2023-05-07T11:11:02;26.90;42.40
4103;DHT22;2065;49.790;9.620;2023-05-07T11:13:45;26.50;43.80
4103;DHT22;2065;49.790;9.620;2023-05-07T11:16:32;26.40;43.50
4103;DHT22;2065;49.790;9.620;2023-05-07T11:19:16;26.70;44.10
4103;DHT22;2065;49.790;9.620;2023-05-07T11:21:47;26.90;42.90
4103;DHT22;2065;49.790;9.620;2023-05-07T11:24:25;26.70;43.20
4103;DHT22;2065;49.790;9.620;2023-05-07T11:26:56;26.70;43.10
4103;DHT22;2065;49.790;9.620;2023-05-07T11:29:25;27.10;43.00
4103;DHT22;2065;49.790;9.620;2023-05-07T11:31:58;27.30;41.40
4103;DHT22;2065;49.790;9.620;2023-05-07T11:34:32;27.40;41.80
4103;DHT22;2065;49.790;9.620;2023-05-07T11:37:00;27.50;41.90
4103;DHT22;2065;49.790;9.620;2023-05-07T11:39:43;27.30;40.90
4103;DHT22;2065;49.790;9.620;2023-05-07T11:42:25;27.20;40.90
4103;DHT22;2065;49.790;9.620;2023-05-07T11:44:52;27.20;40.80
4103;DHT22;2065;49.790;9.620;2023-05-07T11:47:20;27.50;42.50
4103;DHT22;2065;49.790;9.620;2023-05-07T11:49:50;27.80;40.20
4103;DHT22;2065;49.790;9.620;2023-05-07T11:52:19;28.00;40.60
4103;DHT22;2065;49.790;9.620;2023-05-07T11:54:49;28.40;38.90
4103;DHT22;2065;49.790;9.620;2023-05-07T11:57:16;28.50;38.40
4103;DHT22;2065;49.790;9.620;2023-05-07T11:59:43;28.60;39.70
4103;DHT22;2065;49.790;9.620;2023-05-07T12:02:10;28.80;38.40
4103;DHT22;2065;49.790;9.620;2023-05-07T12:04:40;28.60;38.40
4103;DHT22;2065;49.790;9.620;2023-05-07T12:07:12;28.40;39.00
4103;DHT22;2065;49.790;9.620;2023-05-07T12:09:40;28.10;39.40
4103;DHT22;2065;49.790;9.620;2023-05-07T12:12:07;27.90;39.60
4103;DHT22;2065;49.790;9.620;2023-05-07T12:14:37;28.10;38.70
4103;DHT22;2065;49.790;9.620;2023-05-07T12:17:05;27.70;40.20
4103;DHT22;2065;49.790;9.620;2023-05-07T12:19:33;27.70;39.90
4103;DHT22;2065;49.790;9.620;2023-05-07T12:22:02;28.10;40.50
4103;DHT22;2065;49.790;9.620;2023-05-07T12:24:43;28.30;39.60
4103;DHT22;2065;49.790;9.620;2023-05-07T12:27:10;28.50;39.10
4103;DHT22;2065;49.790;9.620;2023-05-07T12:29:37;28.30;38.50
4103;DHT22;2065;49.790;9.620;2023-05-07T12:32:05;28.20;38.70
4103;DHT22;2065;49.790;9.620;2023-05-07T12:34:33;28.10;39.10
4103;DHT22;2065;49.790;9.620;2023-05-07T12:37:02;28.20;38.40
4103;DHT22;2065;49.790;9.620;2023-05-07T12:39:31;28.30;38.80
4103;DHT22;2065;49.790;9.620;2023-05-07T12:41:59;28.20;38.80
4103;DHT22;2065;49.790;9.620;2023-05-07T12:44:31;28.20;38.60
4103;DHT22;2065;49.790;9.620;2023-05-07T12:47:01;28.30;38.40
4103;DHT22;2065;49.790;9.620;2023-05-07T12:49:28;28.50;37.80
4103;DHT22;2065;49.790;9.620;2023-05-07T12:51:55;28.20;38.10
4103;DHT22;2065;49.790;9.620;2023-05-07T12:54:31;28.40;38.40
4103;DHT22;2065;49.790;9.620;2023-05-07T12:57:02;28.60;38.20
4103;DHT22;2065;49.790;9.620;2023-05-07T12:59:33;28.60;37.20
4103;DHT22;2065;49.790;9.620;2023-05-07T13:02:00;28.70;37.10
4103;DHT22;2065;49.790;9.620;2023-05-07T13:04:27;28.40;36.00
4103;DHT22;2065;49.790;9.620;2023-05-07T13:06:55;28.60;36.70
4103;DHT22;2065;49.790;9.620;2023-05-07T13:09:22;28.60;36.60
4103;DHT22;2065;49.790;9.620;2023-05-07T13:11:50;28.60;37.30
4103;DHT22;2065;49.790;9.620;2023-05-07T13:14:17;28.60;37.40
4103;DHT22;2065;49.790;9.620;2023-05-07T13:16:46;28.80;37.90
4103;DHT22;2065;49.790;9.620;2023-05-07T13:19:13;28.80;37.30
4103;DHT22;2065;49.790;9.620;2023-05-07T13:21:41;29.10;36.90
4103;DHT22;2065;49.790;9.620;2023-05-07T13:24:09;29.40;35.70
4103;DHT22;2065;49.790;9.620;2023-05-07T13:26:36;29.20;35.80
4103;DHT22;2065;49.790;9.620;2023-05-07T13:29:09;29.00;36.10
4103;DHT22;2065;49.790;9.620;2023-05-07T13:31:38;28.70;36.20
4103;DHT22;2065;49.790;9.620;2023-05-07T13:34:09;28.50;36.10
4103;DHT22;2065;49.790;9.620;2023-05-07T13:36:37;28.80;36.80
4103;DHT22;2065;49.790;9.620;2023-05-07T13:39:05;29.10;36.80
4103;DHT22;2065;49.790;9.620;2023-05-07T13:41:33;29.40;35.60
4103;DHT22;2065;49.790;9.620;2023-05-07T13:44:00;29.40;35.60
4103;DHT22;2065;49.790;9.620;2023-05-07T13:46:31;29.20;36.60
4103;DHT22;2065;49.790;9.620;2023-05-07T13:49:02;29.00;35.90
4103;DHT22;2065;49.790;9.620;2023-05-07T13:51:38;29.10;36.10
4103;DHT22;2065;49.790;9.620;2023-05-07T13:54:14;28.90;36.70
4103;DHT22;2065;49.790;9.620;2023-05-07T13:56:42;29.00;36.10
4103;DHT22;2065;49.790;9.620;2023-05-07T13:59:15;29.10;36.10
4103;DHT22;2065;49.790;9.620;2023-05-07T14:01:44;29.30;35.20
4103;DHT22;2065;49.790;9.620;2023-05-07T14:04:13;29.50;34.60
4103;DHT22;2065;49.790;9.620;2023-05-07T14:06:40;29.40;35.40
4103;DHT22;2065;49.790;9.620;2023-05-07T14:09:07;29.60;34.00
4103;DHT22;2065;49.790;9.620;2023-05-07T14:11:34;29.50;34.80
4103;DHT22;2065;49.790;9.620;2023-05-07T14:14:01;29.70;35.20
4103;DHT22;2065;49.790;9.620;2023-05-07T14:16:28;29.80;33.00
4103;DHT22;2065;49.790;9.620;2023-05-07T14:18:58;29.70;33.70
4103;DHT22;2065;49.790;9.620;2023-05-07T14:21:25;29.40;34.40
4103;DHT22;2065;49.790;9.620;2023-05-07T14:23:52;29.50;34.30
4103;DHT22;2065;49.790;9.620;2023-05-07T14:26:20;29.50;34.30
4103;DHT22;2065;49.790;9.620;2023-05-07T14:28:48;29.20;33.80
4103;DHT22;2065;49.790;9.620;2023-05-07T14:31:15;29.30;34.70
4103;DHT22;2065;49.790;9.620;2023-05-07T14:33:42;29.40;34.40
4103;DHT22;2065;49.790;9.620;2023-05-07T14:36:11;29.20;34.20
4103;DHT22;2065;49.790;9.620;2023-05-07T14:38:38;28.80;34.60
4103;DHT22;2065;49.790;9.620;2023-05-07T14:41:05;28.50;35.00
4103;DHT22;2065;49.790;9.620;2023-05-07T14:43:32;28.60;35.60
4103;DHT22;2065;49.790;9.620;2023-05-07T14:45:59;28.70;35.00
4103;DHT22;2065;49.790;9.620;2023-05-07T14:48:26;28.60;35.50
4103;DHT22;2065;49.790;9.620;2023-05-07T14:50:53;28.70;35.30
4103;DHT22;2065;49.790;9.620;2023-05-07T14:53:22;28.70;35.30
4103;DHT22;2065;49.790;9.620;2023-05-07T14:55:49;28.80;35.30
4103;DHT22;2065;49.790;9.620;2023-05-07T14:58:16;28.60;34.80
4103;DHT22;2065;49.790;9.620;2023-05-07T15:00:43;28.60;34.60
4103;DHT22;2065;49.790;9.620;2023-05-07T15:03:11;28.40;35.00
4103;DHT22;2065;49.790;9.620;2023-05-07T15:05:42;28.00;35.80
4103;DHT22;2065;49.790;9.620;2023-05-07T15:08:09;28.20;35.90
4103;DHT22;2065;49.790;9.620;2023-05-07T15:10:38;28.20;35.60
4103;DHT22;2065;49.790;9.620;2023-05-07T15:13:07;28.20;36.20
4103;DHT22;2065;49.790;9.620;2023-05-07T15:15:34;28.40;36.40
4103;DHT22;2065;49.790;9.620;2023-05-07T15:18:02;28.20;36.20
4103;DHT22;2065;49.790;9.620;2023-05-07T15:20:29;28.00;36.40
4103;DHT22;2065;49.790;9.620;2023-05-07T15:22:56;28.00;37.70
4103;DHT22;2065;49.790;9.620;2023-05-07T15:25:24;27.90;37.10
4103;DHT22;2065;49.790;9.620;2023-05-07T15:27:52;27.90;38.20
4103;DHT22;2065;49.790;9.620;2023-05-07T15:30:20;28.00;37.90
4103;DHT22;2065;49.790;9.620;2023-05-07T15:32:48;28.10;38.00
4103;DHT22;2065;49.790;9.620;2023-05-07T15:35:16;28.20;37.70
4103;DHT22;2065;49.790;9.620;2023-05-07T15:37:47;28.10;37.30
4103;DHT22;2065;49.790;9.620;2023-05-07T15:40:15;27.90;38.10
4103;DHT22;2065;49.790;9.620;2023-05-07T15:42:42;27.80;37.50
4103;DHT22;2065;49.790;9.620;2023-05-07T15:45:12;27.70;38.20
4103;DHT22;2065;49.790;9.620;2023-05-07T15:47:39;27.30;38.90
4103;DHT22;2065;49.790;9.620;2023-05-07T15:50:07;27.20;39.40
4103;DHT22;2065;49.790;9.620;2023-05-07T15:52:34;27.20;39.70
4103;DHT22;2065;49.790;9.620;2023-05-07T15:55:01;27.20;39.90
4103;DHT22;2065;49.790;9.620;2023-05-07T15:57:29;27.40;39.90
4103;DHT22;2065;49.790;9.620;2023-05-07T15:59:57;27.50;39.70
4103;DHT22;2065;49.790;9.620;2023-05-07T16:02:26;27.20;39.80
4103;DHT22;2065;49.790;9.620;2023-05-07T16:04:53;27.10;40.00
4103;DHT22;2065;49.790;9.620;2023-05-07T16:07:28;27.10;40.90
4103;DHT22;2065;49.790;9.620;2023-05-07T16:09:55;27.30;40.60
4103;DHT22;2065;49.790;9.620;2023-05-07T16:12:22;27.50;40.70
4103;DHT22;2065;49.790;9.620;2023-05-07T16:14:49;27.50;40.90